createdAt,value
2024-01-04T00:00:22.381Z,945.2680664
2024-01-04T00:01:54.553Z,945.1878662
2024-01-04T00:02:56.208Z,945.0648193
2024-01-04T00:03:56.927Z,945.052002
2024-01-04T00:04:58.586Z,945.1939087
2024-01-04T00:06:01.424Z,945.133728
2024-01-04T00:08:04.497Z,945.0967407
2024-01-04T00:10:04.461Z,945.0493164
2024-01-04T00:11:05.104Z,945.0183105
2024-01-04T00:12:06.715Z,945.0231323
2024-01-04T00:13:27.693Z,945.0209351
2024-01-04T00:15:10.028Z,945.0183105
2024-01-04T00:16:10.838Z,945.0241699
2024-01-04T00:17:12.110Z,944.977356
2024-01-04T00:18:13.241Z,945.0504761
2024-01-04T00:19:17.322Z,944.9692993
2024-01-04T00:21:16.574Z,945.0218506
2024-01-04T00:22:18.132Z,944.9682007
2024-01-04T00:23:18.914Z,945.1116943
2024-01-04T00:24:19.688Z,945.0482178
2024-01-04T00:25:21.701Z,945.0756226
2024-01-04T00:26:22.235Z,944.9248657
2024-01-04T00:27:53.528Z,944.9857788
2024-01-04T00:28:54.160Z,944.9655762
2024-01-04T00:29:55.695Z,945.0197144
2024-01-04T00:30:56.861Z,945.0965576
2024-01-04T00:31:57.054Z,945.1401367
2024-01-04T00:32:58.656Z,944.9742432
2024-01-04T00:33:59.321Z,945.0429077
2024-01-04T00:35:00.792Z,945.0100098
2024-01-04T00:36:01.521Z,945.0267944
2024-01-04T00:37:02.505Z,945.1126709
2024-01-04T00:38:03.868Z,944.9846802
2024-01-04T00:39:05.694Z,945.125
2024-01-04T00:40:06.217Z,945.0406494
2024-01-04T00:41:06.936Z,945.3137207
2024-01-04T00:42:08.756Z,945.1105957
2024-01-04T00:43:10.262Z,945.0541992
2024-01-04T00:44:10.935Z,945.1998291
2024-01-04T00:45:12.629Z,945.21521
2024-01-04T00:46:13.065Z,945.1262207
2024-01-04T00:47:13.652Z,945.0857544
2024-01-04T00:48:15.069Z,945.1240845
2024-01-04T00:49:15.418Z,945.1289063
2024-01-04T00:50:17.308Z,945.1724854
2024-01-04T00:51:18.578Z,945.0976563
2024-01-04T00:52:20.153Z,945.1079712
2024-01-04T00:53:20.633Z,945.3168945
2024-01-04T00:54:29.137Z,945.4135742
2024-01-04T00:55:53.686Z,945.300293
2024-01-04T00:56:55.366Z,945.3164063
2024-01-04T00:57:55.852Z,945.4260254
2024-01-04T00:58:56.518Z,945.321167
2024-01-04T00:59:57.897Z,945.4232788
2024-01-04T01:00:58.614Z,945.3602905
2024-01-04T01:01:59.259Z,945.4092407
2024-01-04T01:03:00.664Z,945.3103027
2024-01-04T01:04:01.252Z,945.2701416
2024-01-04T01:05:06.834Z,945.3078003
2024-01-04T01:07:04.806Z,945.2885742
2024-01-04T01:08:05.722Z,945.467041
2024-01-04T01:09:07.162Z,945.3208618
2024-01-04T01:10:10.752Z,945.6624756
2024-01-04T01:12:10.166Z,945.4611206
2024-01-04T01:13:10.792Z,945.5925293
2024-01-04T01:14:14.204Z,945.4052124
2024-01-04T01:16:13.952Z,945.4136963
2024-01-04T01:17:14.582Z,945.5545044
2024-01-04T01:18:15.342Z,945.4324951
2024-01-04T01:19:16.953Z,945.5362549
2024-01-04T01:20:18.134Z,945.4960938
2024-01-04T01:21:19.056Z,945.5474854
2024-01-04T01:22:20.596Z,945.5992432
2024-01-04T01:23:21.668Z,945.3638306
2024-01-04T01:24:53.804Z,945.5306396
2024-01-04T01:25:54.407Z,945.614502
2024-01-04T01:26:55.054Z,945.5779419
2024-01-04T01:27:55.856Z,945.7515869
2024-01-04T01:28:57.496Z,945.6408081
2024-01-04T01:29:58.461Z,945.7402954
2024-01-04T01:30:59.612Z,945.6418457
2024-01-04T01:32:00.483Z,945.6313477
2024-01-04T01:33:02.186Z,945.8734131
2024-01-04T01:34:03.155Z,945.8322144
2024-01-04T01:35:04.146Z,945.7810669
2024-01-04T01:36:04.933Z,945.8756104
2024-01-04T01:37:06.806Z,945.5844727
2024-01-04T01:39:07.564Z,945.579834
2024-01-04T01:40:08.244Z,945.5916138
2024-01-04T01:41:09.621Z,945.5339355
2024-01-04T01:42:10.284Z,945.6151733
2024-01-04T01:43:11.573Z,945.7782593
2024-01-04T01:44:12.134Z,945.717041
2024-01-04T01:45:14.129Z,945.6295166
2024-01-04T01:46:14.676Z,945.680542
2024-01-04T01:47:15.293Z,945.6955566
2024-01-04T01:48:16.530Z,945.8120117
2024-01-04T01:49:17.093Z,945.8464966
2024-01-04T01:50:17.447Z,945.8728027
2024-01-04T01:51:18.110Z,946.0584106
2024-01-04T01:52:19.593Z,945.991333
2024-01-04T01:53:20.763Z,945.9495239
2024-01-04T01:54:22.109Z,946.0569458
2024-01-04T01:55:54.085Z,946.1273193
2024-01-04T01:56:54.669Z,946.1542358
2024-01-04T01:57:55.605Z,946.119873
2024-01-04T01:58:56.201Z,946.2121582
2024-01-04T01:59:57.099Z,946.2011108
2024-01-04T02:00:58.637Z,946.1581421
2024-01-04T02:01:59.558Z,946.3219604
2024-01-04T02:03:00.961Z,946.1867065
2024-01-04T02:04:01.536Z,946.1813354
2024-01-04T02:05:02.165Z,946.2216187
2024-01-04T02:06:03.609Z,946.206543
2024-01-04T02:07:05.259Z,946.2510986
2024-01-04T02:08:05.792Z,946.4052124
2024-01-04T02:09:48.357Z,946.4107666
2024-01-04T02:11:12.029Z,946.2190552
2024-01-04T02:13:10.246Z,946.326416
2024-01-04T02:14:11.760Z,946.2748413
2024-01-04T02:15:12.986Z,946.5734253
2024-01-04T02:16:14.697Z,946.4321899
2024-01-04T02:17:15.188Z,946.4644775
2024-01-04T02:18:16.786Z,946.4359131
2024-01-04T02:19:17.462Z,946.4988403
2024-01-04T02:20:18.015Z,946.3118896
2024-01-04T02:21:18.830Z,946.3554077
2024-01-04T02:22:20.098Z,946.5342407
2024-01-04T02:23:20.864Z,946.3446655
2024-01-04T02:24:52.060Z,946.3129883
2024-01-04T02:25:53.630Z,946.3484497
2024-01-04T02:26:54.414Z,946.5100708
2024-01-04T02:27:56.365Z,946.548584
2024-01-04T02:28:56.900Z,946.5040894
2024-01-04T02:29:57.455Z,946.5039063
2024-01-04T02:30:59.653Z,946.6732178
2024-01-04T02:33:00.817Z,946.7912598
2024-01-04T02:34:01.516Z,946.8540649
2024-01-04T02:35:03.172Z,946.7262573
2024-01-04T02:36:04.423Z,946.6643677
2024-01-04T02:37:04.882Z,946.7664185
2024-01-04T02:38:06.808Z,946.6486206
2024-01-04T02:39:07.439Z,946.699585
2024-01-04T02:40:09.342Z,946.7940063
2024-01-04T02:41:09.851Z,946.736084
2024-01-04T02:42:11.355Z,946.6720581
2024-01-04T02:43:12.038Z,946.7020874
2024-01-04T02:44:13.057Z,946.6842041
2024-01-04T02:45:13.304Z,946.6880493
2024-01-04T02:46:14.474Z,946.7262573
2024-01-04T02:47:19.109Z,946.6616211
2024-01-04T02:49:16.853Z,946.715332
2024-01-04T02:50:17.114Z,946.7583008
2024-01-04T02:51:18.065Z,946.6364746
2024-01-04T02:52:19.640Z,946.7362671
2024-01-04T02:53:20.542Z,946.6869507
2024-01-04T02:54:51.962Z,946.715332
2024-01-04T02:55:53.554Z,946.774353
2024-01-04T02:56:54.915Z,946.753418
2024-01-04T02:57:56.642Z,946.6852417
2024-01-04T02:58:57.250Z,946.7158813
2024-01-04T02:59:58.298Z,946.6425171
2024-01-04T03:00:59.664Z,946.7546387
2024-01-04T03:02:00.399Z,946.604248
2024-01-04T03:03:08.517Z,946.6515503
2024-01-04T03:05:08.234Z,946.7123413
2024-01-04T03:07:04.955Z,946.6849976
2024-01-04T03:08:15.448Z,946.6854858
2024-01-04T03:10:07.773Z,946.6704712
2024-01-04T03:11:08.624Z,946.6188965
2024-01-04T03:12:09.714Z,946.6550903
2024-01-04T03:13:12.448Z,946.6347046
2024-01-04T03:15:12.829Z,946.6615601
2024-01-04T03:16:14.971Z,946.6696167
2024-01-04T03:18:15.327Z,946.5811157
2024-01-04T03:19:15.954Z,946.6063232
2024-01-04T03:20:16.531Z,946.6968994
2024-01-04T03:21:17.140Z,946.7406006
2024-01-04T03:22:19.649Z,946.7132568
2024-01-04T03:24:19.914Z,946.7181396
2024-01-04T03:25:21.634Z,946.6138916
2024-01-04T03:26:54.144Z,946.6617432
2024-01-04T03:27:55.840Z,946.6585693
2024-01-04T03:28:56.462Z,946.7622681
2024-01-04T03:29:57.818Z,946.7022095
2024-01-04T03:31:19.332Z,946.7801514
2024-01-04T03:33:01.898Z,946.7263794
2024-01-04T03:34:03.380Z,946.7393799
2024-01-04T03:35:03.321Z,946.6314087
2024-01-04T03:36:04.887Z,946.6307983
2024-01-04T03:37:05.505Z,946.6893921
2024-01-04T03:38:11.948Z,946.7732544
2024-01-04T03:40:08.489Z,946.7115479
2024-01-04T03:41:09.289Z,946.5932617
2024-01-04T03:42:10.728Z,946.654541
2024-01-04T03:43:11.492Z,946.7399902
2024-01-04T03:44:12.643Z,946.5784302
2024-01-04T03:45:13.865Z,946.8156128
2024-01-04T03:46:17.869Z,946.7421875
2024-01-04T03:47:17.036Z,946.6850586
2024-01-04T03:48:19.033Z,946.7438965
2024-01-04T03:49:20.169Z,946.7593994
2024-01-04T03:50:52.668Z,946.6401367
2024-01-04T03:51:53.908Z,946.6564331
2024-01-04T03:52:55.800Z,946.6992188
2024-01-04T03:53:56.850Z,946.7873535
2024-01-04T03:54:57.738Z,946.6712646
2024-01-04T03:55:59.549Z,946.696106
2024-01-04T03:57:00.537Z,946.6934204
2024-01-04T03:58:01.570Z,946.6760864
2024-01-04T03:59:02.377Z,946.7373657
2024-01-04T04:00:03.485Z,946.8990479
2024-01-04T04:01:09.525Z,946.8798218
2024-01-04T04:03:06.773Z,946.8373413
2024-01-04T04:04:08.438Z,946.9469604
2024-01-04T04:05:09.196Z,946.9227905
2024-01-04T04:06:10.975Z,947.0494385
2024-01-04T04:07:11.705Z,947.053772
2024-01-04T04:08:13.155Z,947
2024-01-04T04:09:13.857Z,947.0653076
2024-01-04T04:10:14.800Z,947.0790405
2024-01-04T04:11:15.512Z,947.152832
2024-01-04T04:12:17.268Z,947.1784668
2024-01-04T04:13:17.993Z,947.2775269
2024-01-04T04:14:18.701Z,947.3548584
2024-01-04T04:15:20.529Z,947.3531494
2024-01-04T04:16:52.049Z,947.4335938
2024-01-04T04:17:52.877Z,947.4255981
2024-01-04T04:18:54.297Z,947.482666
2024-01-04T04:19:54.942Z,947.5012207
2024-01-04T04:20:55.646Z,947.4380493
2024-01-04T04:21:56.091Z,947.4712524
2024-01-04T04:22:57.582Z,947.4771729
2024-01-04T04:23:58.235Z,947.4986572
2024-01-04T04:24:59.046Z,947.50177
2024-01-04T04:25:59.578Z,947.5258789
2024-01-04T04:27:01.227Z,947.552002
2024-01-04T04:28:02.351Z,947.6074219
2024-01-04T04:29:03.021Z,947.5193481
2024-01-04T04:30:03.999Z,947.5300903
2024-01-04T04:31:05.578Z,947.5353394
2024-01-04T04:32:06.545Z,947.4784546
2024-01-04T04:33:07.177Z,947.4831543
2024-01-04T04:34:07.930Z,947.5148315
2024-01-04T04:35:08.603Z,947.4659424
2024-01-04T04:36:10.183Z,947.4584351
2024-01-04T04:37:10.910Z,947.4866333
2024-01-04T04:38:12.547Z,947.560791
2024-01-04T04:39:13.469Z,947.5518188
2024-01-04T04:40:15.867Z,947.560791
2024-01-04T04:41:14.595Z,947.5803223
2024-01-04T04:42:16.134Z,947.644043
2024-01-04T04:43:17.655Z,947.7574463
2024-01-04T04:44:18.363Z,947.5738525
2024-01-04T04:45:19.230Z,947.6367188
2024-01-04T04:46:51.812Z,947.6609497
2024-01-04T04:47:52.716Z,947.7145386
2024-01-04T04:48:53.287Z,947.7875977
2024-01-04T04:49:54.749Z,947.7619019
2024-01-04T04:50:55.650Z,947.8471069
2024-01-04T04:51:56.057Z,947.703186
2024-01-04T04:52:57.603Z,947.6015625
2024-01-04T04:53:58.125Z,947.6520386
2024-01-04T04:54:58.979Z,947.6542358
2024-01-04T04:55:59.721Z,947.6240845
2024-01-04T04:57:01.456Z,947.5526733
2024-01-04T04:58:02.111Z,947.5661011
2024-01-04T04:59:02.943Z,947.5675659
2024-01-04T05:00:03.743Z,947.6619263
2024-01-04T05:01:05.374Z,947.5862427
2024-01-04T05:02:06.690Z,947.5074463
2024-01-04T05:03:07.562Z,947.5181274
2024-01-04T05:04:08.259Z,947.7195435
2024-01-04T05:05:08.792Z,947.5153809
2024-01-04T05:06:09.789Z,947.5830688
2024-01-04T05:07:10.844Z,947.5388794
2024-01-04T05:08:11.829Z,947.5168457
2024-01-04T05:09:14.492Z,947.5136108
2024-01-04T05:10:14.525Z,947.5271606
2024-01-04T05:11:15.055Z,947.5646362
2024-01-04T05:12:16.584Z,947.50177
2024-01-04T05:13:17.845Z,947.4308472
2024-01-04T05:14:18.608Z,947.5862427
2024-01-04T05:15:19.741Z,947.5032959
2024-01-04T05:16:51.438Z,947.5570068
2024-01-04T05:17:52.138Z,947.6079712
2024-01-04T05:18:53.444Z,947.6032715
2024-01-04T05:19:54.288Z,947.5163574
2024-01-04T05:20:55.611Z,947.4932861
2024-01-04T05:21:56.466Z,947.4770508
2024-01-04T05:22:57.129Z,947.5340576
2024-01-04T05:23:58.497Z,947.7702637
2024-01-04T05:24:59.071Z,947.4727173
2024-01-04T05:25:59.573Z,947.5023193
2024-01-04T05:27:01.122Z,947.4984131
2024-01-04T05:28:02.671Z,947.5667725
2024-01-04T05:29:03.868Z,947.6425781
2024-01-04T05:30:04.871Z,947.5446777
2024-01-04T05:31:06.123Z,947.4508057
2024-01-04T05:32:07.144Z,947.4551392
2024-01-04T05:33:08.300Z,947.4423218
2024-01-04T05:34:09.116Z,947.4863892
2024-01-04T05:35:10.096Z,947.5654907
2024-01-04T05:36:11.106Z,947.5682983
2024-01-04T05:37:15.969Z,947.6696777
2024-01-04T05:39:14.415Z,947.5183716
2024-01-04T05:40:15.136Z,947.5644531
2024-01-04T05:41:16.231Z,947.5505981
2024-01-04T05:42:18.008Z,947.5233765
2024-01-04T05:43:18.906Z,947.5114136
2024-01-04T05:44:49.858Z,947.4807739
2024-01-04T05:45:54.665Z,947.5839233
2024-01-04T05:47:52.927Z,947.6199951
2024-01-04T05:48:54.009Z,947.6194458
2024-01-04T05:49:54.836Z,947.6973267
2024-01-04T05:50:56.134Z,947.4700928
2024-01-04T05:51:56.646Z,947.5668945
2024-01-04T05:52:57.455Z,947.7457275
2024-01-04T05:53:58.204Z,947.6182861
2024-01-04T05:54:59.055Z,947.8601074
2024-01-04T05:56:09.398Z,947.8127441
2024-01-04T05:58:01.858Z,947.7806396
2024-01-04T05:59:02.309Z,947.7642822
2024-01-04T06:00:04.134Z,947.8504639
2024-01-04T06:01:04.788Z,947.8126831
2024-01-04T06:02:06.369Z,947.8153076
2024-01-04T06:03:07.112Z,947.8320313
2024-01-04T06:04:08.372Z,947.882019
2024-01-04T06:05:09.273Z,947.8079834
2024-01-04T06:06:09.833Z,947.770874
2024-01-04T06:07:11.435Z,947.8696899
2024-01-04T06:08:12.096Z,947.824585
2024-01-04T06:09:13.519Z,947.8062744
2024-01-04T06:10:14.050Z,947.7923584
2024-01-04T06:11:14.528Z,947.8465576
2024-01-04T06:12:16.292Z,947.8669434
2024-01-04T06:13:18.631Z,947.8787231
2024-01-04T06:14:48.875Z,947.8609619
2024-01-04T06:15:49.483Z,947.9484863
2024-01-04T06:16:51.144Z,947.8915405
2024-01-04T06:17:52.813Z,947.8378906
2024-01-04T06:18:53.634Z,947.8565674
2024-01-04T06:19:54.058Z,947.8640747
2024-01-04T06:20:55.058Z,947.8931274
2024-01-04T06:21:55.755Z,947.9528198
2024-01-04T06:22:57.085Z,947.9715576
2024-01-04T06:23:57.836Z,947.9013062
2024-01-04T06:24:58.332Z,947.8959351
2024-01-04T06:25:59.385Z,947.8873291
2024-01-04T06:27:01.054Z,947.9346924
2024-01-04T06:28:01.770Z,947.9212646
2024-01-04T06:29:02.248Z,947.9174805
2024-01-04T06:30:03.147Z,948.0050049
2024-01-04T06:31:12.874Z,948.0803223
2024-01-04T06:33:07.043Z,947.9837646
2024-01-04T06:34:07.742Z,948.0692139
2024-01-04T06:35:08.248Z,948.0304565
2024-01-04T06:36:09.927Z,947.9938965
2024-01-04T06:37:11.150Z,948.0236206
2024-01-04T06:38:11.649Z,948.0929565
2024-01-04T06:39:13.273Z,948.0456543
2024-01-04T06:40:13.927Z,948.0546875
2024-01-04T06:41:14.635Z,948.1063843
2024-01-04T06:42:16.456Z,948.1422729
2024-01-04T06:43:17.879Z,948.060791
2024-01-04T06:44:49.037Z,948.0501709
2024-01-04T06:45:49.647Z,948.062561
2024-01-04T06:46:50.265Z,948.1257935
2024-01-04T06:47:52.492Z,948.1620483
2024-01-04T06:48:53.804Z,948.1624756
2024-01-04T06:50:00.875Z,948.1217041
2024-01-04T06:50:55.686Z,948.2114258
2024-01-04T06:51:56.138Z,948.2001343
2024-01-04T06:52:57.664Z,948.2017822
2024-01-04T06:54:00.652Z,948.27771
2024-01-04T06:54:59.426Z,948.3115845
2024-01-04T06:56:00.579Z,948.3062744
2024-01-04T06:57:01.579Z,948.2095337
2024-01-04T06:58:02.845Z,948.262207
2024-01-04T06:59:04.709Z,948.2611084
2024-01-04T07:00:05.458Z,948.2620239
2024-01-04T07:01:06.586Z,948.2878418
2024-01-04T07:02:07.916Z,948.3304443
2024-01-04T07:03:08.576Z,948.3560791
2024-01-04T07:04:13.187Z,948.3255615
2024-01-04T07:06:11.015Z,948.2507324
2024-01-04T07:07:12.128Z,948.246582
2024-01-04T07:08:13.883Z,948.223999
2024-01-04T07:09:14.611Z,948.2313843
2024-01-04T07:10:16.116Z,948.2492065
2024-01-04T07:11:16.762Z,948.3718872
2024-01-04T07:12:18.153Z,948.3154907
2024-01-04T07:13:49.347Z,948.3249512
2024-01-04T07:14:53.569Z,948.3936157
2024-01-04T07:16:51.294Z,948.3518677
2024-01-04T07:17:53.369Z,948.3851318
2024-01-04T07:18:53.963Z,948.2943726
2024-01-04T07:19:54.626Z,948.3256226
2024-01-04T07:21:08.686Z,948.4606934
2024-01-04T07:23:00.236Z,948.4138184
2024-01-04T07:24:01.679Z,948.3704834
2024-01-04T07:25:02.298Z,948.362915
2024-01-04T07:26:03.403Z,948.3549805
2024-01-04T07:27:04.269Z,948.4604492
2024-01-04T07:28:05.613Z,948.5292969
2024-01-04T07:29:06.125Z,948.4991455
2024-01-04T07:30:07.119Z,948.4604492
2024-01-04T07:31:07.616Z,948.5179443
2024-01-04T07:32:08.528Z,948.5165405
2024-01-04T07:33:10.290Z,948.6397095
2024-01-04T07:34:11.392Z,948.565918
2024-01-04T07:35:16.702Z,948.5404053
2024-01-04T07:36:14.362Z,948.4973145
2024-01-04T07:37:14.737Z,948.4731445
2024-01-04T07:38:16.313Z,948.5314331
2024-01-04T07:39:17.244Z,948.614502
2024-01-04T07:40:49.050Z,948.675293
2024-01-04T07:41:50.823Z,948.5882568
2024-01-04T07:42:51.481Z,948.5898438
2024-01-04T07:43:52.035Z,948.6430664
2024-01-04T07:45:01.729Z,948.6329956
2024-01-04T07:45:53.944Z,948.6296997
2024-01-04T07:46:54.778Z,948.6376343
2024-01-04T07:47:56.717Z,948.6952515
2024-01-04T07:48:59.831Z,948.9240723
2024-01-04T07:49:57.847Z,948.7779541
2024-01-04T07:50:58.384Z,948.7530518
2024-01-04T07:52:00.437Z,948.770752
2024-01-04T07:53:02.283Z,948.7763062
2024-01-04T07:54:03.457Z,948.8101807
2024-01-04T07:55:07.321Z,948.8509521
2024-01-04T07:56:10.342Z,948.8192139
2024-01-04T07:58:07.866Z,948.8095093
2024-01-04T07:59:08.647Z,948.8498535
2024-01-04T08:00:09.351Z,948.8004761
2024-01-04T08:01:11.164Z,948.8401489
2024-01-04T08:02:11.586Z,948.9142456
2024-01-04T08:03:12.515Z,948.8225098
2024-01-04T08:04:13.100Z,948.8713989
2024-01-04T08:05:13.946Z,948.7593994
2024-01-04T08:06:14.850Z,948.9082642
2024-01-04T08:07:15.511Z,948.7912598
2024-01-04T08:08:16.883Z,948.7990723
2024-01-04T08:09:53.678Z,948.8270264
2024-01-04T08:11:56.342Z,948.9368896
2024-01-04T08:13:52.307Z,948.9020386
2024-01-04T08:14:57.017Z,948.8936157
2024-01-04T08:16:54.762Z,948.8634644
2024-01-04T08:18:05.490Z,948.8915405
2024-01-04T08:19:58.979Z,948.9168701
2024-01-04T08:20:59.533Z,948.8533325
2024-01-04T08:21:59.850Z,948.8878174
2024-01-04T08:23:00.357Z,948.8240356
2024-01-04T08:24:02.496Z,948.8911743
2024-01-04T08:25:03.206Z,948.8596802
2024-01-04T08:26:04.103Z,948.8543701
2024-01-04T08:27:04.749Z,948.8250122
2024-01-04T08:28:06.099Z,948.8800049
2024-01-04T08:29:06.841Z,948.809082
2024-01-04T08:30:07.442Z,948.8629761
2024-01-04T08:31:08.518Z,948.8156128
2024-01-04T08:32:09.105Z,948.8549194
2024-01-04T08:33:10.778Z,948.873291
2024-01-04T08:34:11.186Z,948.8534546
2024-01-04T08:35:11.977Z,948.890686
2024-01-04T08:36:13.532Z,948.9136963
2024-01-04T08:37:16.072Z,948.9185791
2024-01-04T08:38:16.482Z,948.9874268
2024-01-04T08:39:48.593Z,948.9961548
2024-01-04T08:40:50.114Z,949.0316162
2024-01-04T08:41:50.697Z,948.8870239
2024-01-04T08:42:59.831Z,949.0229492
2024-01-04T08:44:56.013Z,949.0939331
2024-01-04T08:45:57.343Z,949.1126709
2024-01-04T08:46:58.357Z,949.1029663
2024-01-04T08:48:06.104Z,949.0841675
2024-01-04T08:50:01.123Z,949.1062622
2024-01-04T08:51:03.136Z,949.1994019
2024-01-04T08:52:04.365Z,949.2132568
2024-01-04T08:53:05.640Z,949.2801514
2024-01-04T08:54:07.427Z,949.173645
2024-01-04T08:55:09.406Z,949.2424927
2024-01-04T08:56:12.580Z,949.265625
2024-01-04T08:58:13.500Z,949.2451782
2024-01-04T08:59:14.965Z,949.1429443
2024-01-04T09:00:15.986Z,949.2828369
2024-01-04T09:01:16.814Z,949.2120361
2024-01-04T09:02:49.745Z,949.1522827
2024-01-04T09:03:50.323Z,949.2017822
2024-01-04T09:04:50.883Z,949.2438354
2024-01-04T09:05:51.992Z,949.199707
2024-01-04T09:06:52.649Z,949.2692261
2024-01-04T09:07:54.473Z,949.1864014
2024-01-04T09:08:55.964Z,949.2553101
2024-01-04T09:09:56.520Z,949.2912598
2024-01-04T09:10:58.096Z,949.2999878
2024-01-04T09:12:15.311Z,949.2796631
2024-01-04T09:14:00.462Z,949.3312378
2024-01-04T09:15:01.663Z,949.335144
2024-01-04T09:16:02.997Z,949.3673706
2024-01-04T09:17:03.534Z,949.3515625
2024-01-04T09:18:06.761Z,949.3154907
2024-01-04T09:20:06.793Z,949.3634644
2024-01-04T09:21:07.708Z,949.3371582
2024-01-04T09:22:08.168Z,949.387207
2024-01-04T09:23:10.024Z,949.4406128
2024-01-04T09:24:10.711Z,949.388916
2024-01-04T09:25:11.917Z,949.545105
2024-01-04T09:26:12.892Z,949.3670044
2024-01-04T09:27:13.419Z,949.3668823
2024-01-04T09:28:15.416Z,949.3223267
2024-01-04T09:29:47.229Z,949.3322754
2024-01-04T09:30:47.942Z,949.3035889
2024-01-04T09:31:48.472Z,949.3123169
2024-01-04T09:32:49.451Z,949.3175049
2024-01-04T09:33:50.139Z,949.232666
2024-01-04T09:34:50.800Z,949.2885742
2024-01-04T09:35:51.923Z,949.2793579
2024-01-04T09:36:55.196Z,949.4381104
2024-01-04T09:38:56.237Z,949.3208008
2024-01-04T09:40:57.379Z,949.336853
2024-01-04T09:41:57.662Z,949.4779663
2024-01-04T09:43:01.702Z,949.3126831
2024-01-04T09:43:59.718Z,949.362793
2024-01-04T09:45:00.412Z,949.2767334
2024-01-04T09:46:01.121Z,949.315918
2024-01-04T09:47:01.797Z,949.3517456
2024-01-04T09:48:02.605Z,949.3796997
2024-01-04T09:49:03.998Z,949.3710938
2024-01-04T09:50:04.454Z,949.4829712
2024-01-04T09:51:04.983Z,949.4894409
2024-01-04T09:52:10.669Z,949.5736084
2024-01-04T09:54:08.219Z,949.5150146
2024-01-04T09:55:11.153Z,949.699707
2024-01-04T09:57:10.155Z,949.6646729
2024-01-04T09:58:11.116Z,949.7078247
2024-01-04T09:59:12.629Z,949.529541
2024-01-04T10:00:13.189Z,949.600647
2024-01-04T10:01:13.874Z,949.6835938
2024-01-04T10:02:14.365Z,949.5953369
2024-01-04T10:03:46.807Z,949.6276855
2024-01-04T10:04:47.247Z,949.585144
2024-01-04T10:05:48.083Z,949.614502
2024-01-04T10:06:48.508Z,949.7217407
2024-01-04T10:07:49.932Z,949.6779785
2024-01-04T10:08:51.224Z,949.6068726
2024-01-04T10:09:51.633Z,949.6741943
2024-01-04T10:10:52.167Z,949.612793
2024-01-04T10:11:53.663Z,949.6010742
2024-01-04T10:12:54.136Z,949.6851807
2024-01-04T10:13:55.675Z,949.6361084
2024-01-04T10:14:56.138Z,949.6635742
2024-01-04T10:15:56.875Z,949.6657104
2024-01-04T10:16:57.301Z,949.6043701
2024-01-04T10:17:58.205Z,949.8881226
2024-01-04T10:18:59.302Z,949.6479492
2024-01-04T10:19:59.644Z,949.6974487
2024-01-04T10:21:00.626Z,949.6328735
2024-01-04T10:22:01.099Z,949.6576538
2024-01-04T10:23:02.852Z,949.6569824
2024-01-04T10:24:03.528Z,949.7215576
2024-01-04T10:25:03.930Z,949.6801758
2024-01-04T10:26:04.697Z,949.6582642
2024-01-04T10:27:06.069Z,949.7432861
2024-01-04T10:29:07.096Z,949.6889038
2024-01-04T10:30:17.436Z,949.6948242
2024-01-04T10:32:15.307Z,949.6766968
2024-01-04T10:34:12.201Z,949.6567383
2024-01-04T10:35:12.855Z,949.6825562
2024-01-04T10:36:13.738Z,949.6135864
2024-01-04T10:37:14.641Z,949.6350708
2024-01-04T10:38:46.653Z,949.6721802
2024-01-04T10:39:47.588Z,949.6663818
2024-01-04T10:40:48.639Z,949.737915
2024-01-04T10:41:50.147Z,949.7067261
2024-01-04T10:42:51.628Z,949.7175293
2024-01-04T10:43:52.393Z,949.6863403
2024-01-04T10:44:53.731Z,949.6037598
2024-01-04T10:45:54.849Z,949.7020264
2024-01-04T10:46:54.917Z,949.6465454
2024-01-04T10:47:56.593Z,949.6498413
2024-01-04T10:48:57.240Z,949.6373291
2024-01-04T10:49:57.654Z,949.6923218
2024-01-04T10:50:58.428Z,949.6379395
2024-01-04T10:51:59.877Z,949.6104736
2024-01-04T10:53:00.355Z,949.5502319
2024-01-04T10:54:08.270Z,949.564209
2024-01-04T10:56:03.140Z,949.5053711
2024-01-04T10:57:04.112Z,949.548584
2024-01-04T10:58:04.425Z,949.5614014
2024-01-04T10:59:05.599Z,949.5231934
2024-01-04T11:00:06.399Z,949.5645142
2024-01-04T11:01:06.976Z,949.5106201
2024-01-04T11:02:07.407Z,949.5563965
2024-01-04T11:03:09.209Z,949.5067139
2024-01-04T11:04:11.020Z,949.5234375
2024-01-04T11:05:10.267Z,949.4693604
2024-01-04T11:06:17.324Z,949.4957886
2024-01-04T11:08:13.656Z,949.4655762
2024-01-04T11:09:15.218Z,949.4229736
2024-01-04T11:10:46.065Z,949.430542
2024-01-04T11:11:47.431Z,949.4279785
2024-01-04T11:12:49.288Z,949.5014038
2024-01-04T11:13:49.716Z,949.4205322
2024-01-04T11:14:50.544Z,949.3859253
2024-01-04T11:16:06.365Z,949.3682861
2024-01-04T11:17:08.275Z,949.3521729
2024-01-04T11:18:31.174Z,949.3356323
2024-01-04T11:19:55.709Z,949.3322754
2024-01-04T11:20:56.238Z,949.3286133
2024-01-04T11:21:58.725Z,949.2966919
2024-01-04T11:24:00.516Z,949.2279053
2024-01-04T11:25:06.608Z,949.2192383
2024-01-04T11:27:02.849Z,949.2051392
2024-01-04T11:28:03.944Z,949.1966553
2024-01-04T11:29:05.710Z,949.1361694
2024-01-04T11:30:06.893Z,949.1490479
2024-01-04T11:31:07.849Z,949.1507568
2024-01-04T11:32:14.087Z,949.1593628
2024-01-04T11:34:10.845Z,949.1071777
2024-01-04T11:35:11.368Z,949.1286011
2024-01-04T11:36:12.320Z,949.1355591
2024-01-04T11:37:12.824Z,949.1376343
2024-01-04T11:38:14.362Z,949.1738281
2024-01-04T11:39:45.894Z,949.0949707
2024-01-04T11:40:47.101Z,949.0822144
2024-01-04T11:41:47.547Z,949.0018921
2024-01-04T11:42:49.279Z,949.0265503
2024-01-04T11:43:49.838Z,949.0654907
2024-01-04T11:44:50.729Z,948.9882813
2024-01-04T11:45:51.661Z,948.9980469
2024-01-04T11:46:52.338Z,948.8771973
2024-01-04T11:47:53.615Z,949.0307617
2024-01-04T11:48:54.552Z,948.8602295
2024-01-04T11:50:05.335Z,948.9353027
2024-01-04T11:50:56.926Z,948.8303833
2024-01-04T11:51:58.115Z,948.7639771
2024-01-04T11:52:58.918Z,948.8071899
2024-01-04T11:53:59.679Z,948.7472534
2024-01-04T11:55:01.694Z,948.7179565
2024-01-04T11:56:03.157Z,948.6860962
2024-01-04T11:57:05.678Z,948.7120361
2024-01-04T11:58:05.117Z,948.7092285
2024-01-04T11:59:06.033Z,948.6934204
2024-01-04T12:00:06.884Z,948.5990601
2024-01-04T12:01:09.387Z,948.965332
2024-01-04T12:02:12.303Z,948.6453247
2024-01-04T12:04:12.959Z,948.6146851
2024-01-04T12:05:14.215Z,948.6659546
2024-01-04T12:06:45.872Z,948.5567017